Time;durP1;ratioP1;P1;durP2;ratioP2;P2;SDS_P1;SDS_P2;PMS_P1;PMS_P2;Temp;Humidity;BMP_temperature;BMP_pressure;BME280_temperature;BME280_humidity;BME280_pressure;Samples;Min_cycle;Max_cycle;Signal;HPM_P1;HPM_P2
2023/07/27 00:00:31;;;;;;;0.93;0.93;;;22.10;73.10;;;;;;5110682;27;43334;-70
2023/07/27 00:02:59;;;;;;;0.90;0.90;;;22.10;72.70;;;;;;5110337;27;43472;-69
2023/07/27 00:05:28;;;;;;;0.90;0.90;;;22.20;72.50;;;;;;5105287;27;43449;-69
2023/07/27 00:07:57;;;;;;;0.90;0.90;;;22.20;72.30;;;;;;5108482;27;43619;-70
2023/07/27 00:10:25;;;;;;;1.00;1.00;;;22.20;72.50;;;;;;5108176;27;43677;-69
2023/07/27 00:12:54;;;;;;;0.80;0.80;;;22.20;72.70;;;;;;5109887;27;43407;-70
2023/07/27 00:15:22;;;;;;;0.80;0.80;;;22.10;72.60;;;;;;5086577;27;43444;-70
2023/07/27 00:17:49;;;;;;;0.70;0.70;;;22.10;72.60;;;;;;5110290;27;43924;-71
2023/07/27 00:20:18;;;;;;;0.90;0.90;;;22.10;72.50;;;;;;5109041;27;43873;-70
2023/07/27 00:22:46;;;;;;;1.07;1.07;;;22.00;73.80;;;;;;5110001;27;43439;-69
2023/07/27 00:25:15;;;;;;;1.00;1.00;;;22.00;73.00;;;;;;5092632;27;43381;-70
2023/07/27 00:27:43;;;;;;;0.90;0.90;;;22.00;72.90;;;;;;5109848;27;43612;-69
2023/07/27 00:30:11;;;;;;;0.90;0.90;;;22.00;72.80;;;;;;5084955;27;44621;-70
2023/07/27 00:32:39;;;;;;;0.93;0.93;;;21.90;72.90;;;;;;5091457;27;43399;-70
2023/07/27 00:35:08;;;;;;;0.80;0.80;;;21.90;73.40;;;;;;5110295;27;43355;-69
2023/07/27 00:37:36;;;;;;;1.00;1.00;;;22.00;73.30;;;;;;5090323;27;45752;-70
2023/07/27 00:40:05;;;;;;;0.90;0.90;;;22.10;72.90;;;;;;5109669;27;43495;-69
2023/07/27 00:42:34;;;;;;;1.00;1.00;;;22.20;72.60;;;;;;5110076;27;43347;-70
2023/07/27 00:45:02;;;;;;;0.80;0.80;;;22.20;72.40;;;;;;5110116;27;43501;-70
2023/07/27 00:47:30;;;;;;;0.80;0.80;;;22.20;72.50;;;;;;5108465;27;43595;-69
2023/07/27 00:49:58;;;;;;;0.90;0.90;;;22.10;72.70;;;;;;5107186;27;43332;-70
2023/07/27 00:52:26;;;;;;;0.80;0.80;;;22.10;72.70;;;;;;5103106;27;43419;-70
2023/07/27 00:54:55;;;;;;;0.83;0.83;;;22.10;72.70;;;;;;5095320;27;43556;-70
2023/07/27 00:57:23;;;;;;;0.80;0.80;;;22.10;72.50;;;;;;5109524;27;43623;-70
2023/07/27 00:59:52;;;;;;;0.83;0.83;;;22.10;72.60;;;;;;5109351;27;43406;-69
2023/07/27 01:02:20;;;;;;;1.00;1.00;;;22.00;73.20;;;;;;5103070;27;43604;-72
2023/07/27 01:04:48;;;;;;;0.87;0.87;;;22.00;73.10;;;;;;5090952;27;43531;-73
2023/07/27 01:07:16;;;;;;;0.90;0.90;;;22.00;73.10;;;;;;5109505;27;43602;-73
2023/07/27 01:09:44;;;;;;;0.90;0.90;;;22.00;72.90;;;;;;5090819;27;45029;-73
2023/07/27 01:12:14;;;;;;;0.90;0.90;;;21.90;73.00;;;;;;5109518;27;43387;-78
2023/07/27 01:14:46;;;;;;;0.90;0.90;;;21.90;73.50;;;;;;5090607;27;43439;-73
2023/07/27 01:17:18;;;;;;;0.90;0.90;;;22.00;73.40;;;;;;5108253;27;43933;-72
2023/07/27 01:20:14;;;;;;;1.07;1.07;;;22.10;73.00;;;;;;5089941;27;44724;-73
2023/07/27 01:23:26;;;;;;;0.90;0.90;;;22.20;72.50;;;;;;5108489;27;44113;-73
2023/07/27 01:26:24;;;;;;;0.97;0.97;;;22.20;73.10;;;;;;5109679;27;43426;-73
2023/07/27 01:29:06;;;;;;;0.77;0.77;;;22.20;72.70;;;;;;5105735;27;43661;-72
2023/07/27 01:31:41;;;;;;;0.90;0.90;;;22.10;72.60;;;;;;5104376;27;43488;-72
2023/07/27 01:34:13;;;;;;;0.90;0.90;;;22.10;72.60;;;;;;5108994;27;43881;-73
2023/07/27 01:36:41;;;;;;;1.00;1.00;;;22.10;72.60;;;;;;5109389;27;43483;-73
2023/07/27 01:39:09;;;;;;;0.90;0.90;;;22.00;73.10;;;;;;5089952;27;44705;-73
2023/07/27 01:41:41;;;;;;;1.00;1.00;;;22.00;73.10;;;;;;5108383;27;43446;-73
2023/07/27 01:44:10;;;;;;;0.80;0.80;;;22.00;73.10;;;;;;5109174;27;43506;-73
2023/07/27 01:46:40;;;;;;;0.90;0.90;;;22.00;72.90;;;;;;5089264;27;43383;-74
2023/07/27 01:49:09;;;;;;;0.80;0.80;;;22.00;73.00;;;;;;5089988;27;45402;-74
2023/07/27 01:51:37;;;;;;;0.80;0.80;;;21.90;74.20;;;;;;5108354;27;43459;-74
2023/07/27 01:54:06;;;;;;;0.80;0.80;;;21.90;73.40;;;;;;5090812;27;43954;-73
2023/07/27 01:56:33;;;;;;;0.70;0.70;;;21.90;73.20;;;;;;5109327;27;43762;-74
2023/07/27 01:59:02;;;;;;;0.90;0.90;;;21.90;73.10;;;;;;5089787;27;45855;-74
2023/07/27 02:01:30;;;;;;;1.17;0.90;;;21.90;73.40;;;;;;5107974;27;43358;-74
2023/07/27 02:04:00;;;;;;;1.00;1.00;;;21.90;73.80;;;;;;5107827;27;43421;-74
2023/07/27 02:06:28;;;;;;;0.90;0.90;;;22.00;73.50;;;;;;5090297;27;43522;-74
2023/07/27 02:08:56;;;;;;;0.90;0.90;;;22.10;73.10;;;;;;5089106;27;45739;-75
2023/07/27 02:11:24;;;;;;;0.90;0.90;;;22.20;72.60;;;;;;5089217;27;44677;-74
2023/07/27 02:13:55;;;;;;;0.93;0.93;;;22.40;72.10;;;;;;5108760;27;43340;-74
2023/07/27 02:16:28;;;;;;;0.90;0.90;;;22.40;71.90;;;;;;5108438;27;43368;-73
2023/07/27 02:18:56;;;;;;;0.90;0.90;;;22.40;71.90;;;;;;5107281;27;43900;-72
2023/07/27 02:21:26;;;;;;;0.70;0.70;;;22.30;71.90;;;;;;5108253;27;43438;-73
2023/07/27 02:23:54;;;;;;;0.83;0.83;;;22.20;72.30;;;;;;5108756;27;43419;-74
2023/07/27 02:26:22;;;;;;;0.80;0.80;;;22.20;72.50;;;;;;5090037;27;43451;-74
2023/07/27 02:28:50;;;;;;;0.73;0.73;;;22.10;72.60;;;;;;5108080;27;43826;-74
2023/07/27 02:31:19;;;;;;;0.87;0.87;;;22.10;72.60;;;;;;5089439;27;43379;-74
2023/07/27 02:33:47;;;;;;;0.80;0.80;;;22.10;72.60;;;;;;5089690;27;43410;-73
2023/07/27 02:36:15;;;;;;;0.80;0.80;;;22.00;73.20;;;;;;5089939;27;43565;-74
2023/07/27 02:38:45;;;;;;;0.73;0.73;;;21.90;73.10;;;;;;5089335;27;44798;-73
2023/07/27 02:41:13;;;;;;;0.80;0.80;;;22.00;73.20;;;;;;5105110;27;43505;-73
2023/07/27 02:43:42;;;;;;;0.90;0.90;;;21.90;72.90;;;;;;5088504;27;43387;-73
2023/07/27 02:46:11;;;;;;;0.97;0.97;;;21.90;73.10;;;;;;5083696;27;43368;-73
2023/07/27 02:48:39;;;;;;;0.80;0.80;;;21.90;73.50;;;;;;5089029;27;44733;-73
2023/07/27 02:51:07;;;;;;;0.90;0.90;;;22.00;73.50;;;;;;5089248;27;45162;-74
2023/07/27 02:53:35;;;;;;;0.90;0.90;;;22.10;73.00;;;;;;5107999;27;43457;-73
2023/07/27 02:56:12;;;;;;;0.90;0.90;;;22.20;72.70;;;;;;5095417;27;43429;-74
2023/07/27 02:58:46;;;;;;;0.90;0.90;;;22.20;72.50;;;;;;5088954;27;45349;-73
2023/07/27 03:01:14;;;;;;;0.70;0.70;;;22.10;72.40;;;;;;5082079;27;43470;-72
2023/07/27 03:03:42;;;;;;;0.90;0.90;;;22.10;72.70;;;;;;5088586;27;43492;-73
2023/07/27 03:06:12;;;;;;;0.70;0.70;;;22.10;72.70;;;;;;5089656;27;43407;-73
2023/07/27 03:08:47;;;;;;;0.90;0.90;;;22.10;72.70;;;;;;5089013;27;44123;-73
2023/07/27 03:11:17;;;;;;;0.93;0.93;;;22.10;72.60;;;;;;5092143;27;45013;-73
2023/07/27 03:13:45;;;;;;;0.80;0.80;;;22.00;73.10;;;;;;5092372;27;44077;-73
2023/07/27 03:16:13;;;;;;;1.00;1.00;;;22.00;73.20;;;;;;5110302;27;43494;-73
2023/07/27 03:18:41;;;;;;;0.80;0.80;;;22.00;73.20;;;;;;5092077;27;45748;-73
2023/07/27 03:21:10;;;;;;;0.80;0.80;;;22.00;73.00;;;;;;5111069;27;43420;-73
2023/07/27 03:23:38;;;;;;;0.90;0.90;;;21.90;72.90;;;;;;5110512;27;43426;-76
2023/07/27 03:26:10;;;;;;;0.90;0.90;;;21.90;73.50;;;;;;5108316;27;43597;-73
2023/07/27 03:28:39;;;;;;;0.90;0.90;;;21.90;73.50;;;;;;5086308;28;45477;-73
2023/07/27 03:31:16;;;;;;;0.90;0.90;;;22.00;73.10;;;;;;5109214;27;43964;-73
2023/07/27 03:33:44;;;;;;;0.80;0.80;;;22.20;72.60;;;;;;5092185;27;43374;-73
2023/07/27 03:36:12;;;;;;;0.77;0.77;;;22.30;72.10;;;;;;5092769;27;43784;-73
2023/07/27 03:38:40;;;;;;;0.80;0.80;;;22.30;71.90;;;;;;5092199;27;45943;-74
2023/07/27 03:41:08;;;;;;;0.90;0.90;;;22.30;71.90;;;;;;5110566;27;43463;-73
2023/07/27 03:43:36;;;;;;;0.87;0.87;;;22.20;71.90;;;;;;5110878;27;43418;-73
2023/07/27 03:46:05;;;;;;;1.00;1.00;;;22.20;72.40;;;;;;5111410;27;43439;-73
2023/07/27 03:48:33;;;;;;;0.90;0.90;;;22.10;72.70;;;;;;5091617;27;45709;-74
2023/07/27 03:51:01;;;;;;;0.80;0.80;;;22.10;72.70;;;;;;5092166;27;44740;-73
2023/07/27 03:53:29;;;;;;;0.80;0.80;;;22.10;72.70;;;;;;5108793;27;43415;-74
2023/07/27 03:56:01;;;;;;;0.70;0.70;;;22.00;72.80;;;;;;5111144;27;43526;-73
2023/07/27 03:58:29;;;;;;;0.70;0.70;;;22.00;73.30;;;;;;5091600;27;45735;-73
2023/07/27 04:00:57;;;;;;;0.80;0.80;;;22.00;74.10;;;;;;5092129;27;44748;-73
2023/07/27 04:03:26;;;;;;;0.80;0.80;;;21.90;73.80;;;;;;5091387;27;43417;-73
2023/07/27 04:05:54;;;;;;;0.90;0.90;;;21.90;73.70;;;;;;5084877;27;43439;-73
2023/07/27 04:08:22;;;;;;;0.80;0.80;;;21.90;73.20;;;;;;5084544;27;45317;-72
2023/07/27 04:10:51;;;;;;;0.90;0.90;;;21.90;73.80;;;;;;5084181;27;45187;-73
2023/07/27 04:13:19;;;;;;;0.80;0.80;;;21.90;73.50;;;;;;5106735;27;43437;-73
2023/07/27 04:15:46;;;;;;;0.80;0.80;;;22.00;73.20;;;;;;5092230;27;43455;-73
2023/07/27 04:18:14;;;;;;;0.83;0.83;;;22.10;72.90;;;;;;5087220;27;45394;-73
2023/07/27 04:20:44;;;;;;;0.80;0.80;;;22.10;72.70;;;;;;5106579;27;43455;-72
2023/07/27 04:23:12;;;;;;;0.80;0.80;;;22.10;72.90;;;;;;5086680;27;43413;-73
2023/07/27 04:25:40;;;;;;;0.80;0.80;;;22.10;73.00;;;;;;5105570;27;43484;-72
2023/07/27 04:28:08;;;;;;;0.83;0.83;;;22.10;73.70;;;;;;5084889;27;46203;-73
2023/07/27 04:30:36;;;;;;;0.73;0.73;;;22.00;72.80;;;;;;5074623;28;44999;-73
2023/07/27 04:33:04;;;;;;;0.90;0.90;;;22.00;72.80;;;;;;5089496;27;43851;-73
2023/07/27 04:35:32;;;;;;;0.87;0.87;;;22.00;73.40;;;;;;5090636;27;43411;-73
2023/07/27 04:38:01;;;;;;;0.93;0.93;;;22.00;73.40;;;;;;5103293;27;43828;-73
2023/07/27 04:40:29;;;;;;;0.90;0.90;;;22.10;73.20;;;;;;5085617;27;45103;-74
2023/07/27 04:42:57;;;;;;;0.90;0.90;;;22.00;72.90;;;;;;5110176;27;43363;-73
2023/07/27 04:45:26;;;;;;;0.70;0.70;;;22.10;72.80;;;;;;5110395;27;43419;-73
2023/07/27 04:47:54;;;;;;;0.83;0.80;;;22.00;72.90;;;;;;5109711;27;43595;-73
2023/07/27 04:50:22;;;;;;;0.80;0.80;;;22.00;73.20;;;;;;5091023;27;45111;-72
2023/07/27 04:52:50;;;;;;;1.00;1.00;;;22.00;73.10;;;;;;5109765;27;43454;-73
2023/07/27 04:55:22;;;;;;;0.80;0.80;;;22.00;72.90;;;;;;5091730;27;43510;-73
2023/07/27 04:57:50;;;;;;;0.90;0.90;;;22.00;72.90;;;;;;5103913;27;43619;-73
2023/07/27 05:00:18;;;;;;;0.90;0.90;;;22.00;73.50;;;;;;5090356;27;44425;-73
2023/07/27 05:02:46;;;;;;;0.80;0.80;;;21.90;73.50;;;;;;5090622;27;43393;-73
2023/07/27 05:05:14;;;;;;;0.80;0.80;;;21.90;73.40;;;;;;5109676;27;43494;-74
2023/07/27 05:07:42;;;;;;;0.70;0.70;;;21.90;73.20;;;;;;5109269;27;43697;-73
2023/07/27 05:10:10;;;;;;;0.80;0.80;;;21.90;73.20;;;;;;5109168;27;43963;-73
2023/07/27 05:12:40;;;;;;;0.80;0.80;;;21.80;73.80;;;;;;5109586;27;43505;-73
2023/07/27 05:15:08;;;;;;;0.87;0.87;;;21.90;73.60;;;;;;5109696;27;43533;-73
2023/07/27 05:17:36;;;;;;;0.70;0.70;;;22.00;73.30;;;;;;5109160;27;43611;-73
2023/07/27 05:20:05;;;;;;;0.90;0.90;;;22.20;72.90;;;;;;5108913;27;43934;-73
2023/07/27 05:22:33;;;;;;;0.83;0.83;;;22.30;72.50;;;;;;5090902;27;43455;-73
2023/07/27 05:25:02;;;;;;;0.90;0.90;;;22.30;72.40;;;;;;5109636;27;43319;-73
2023/07/27 05:27:30;;;;;;;0.70;0.70;;;22.20;72.20;;;;;;5108979;27;43915;-73
2023/07/27 05:29:59;;;;;;;0.77;0.77;;;22.20;72.30;;;;;;5108827;27;43427;-73
2023/07/27 05:32:27;;;;;;;0.80;0.80;;;22.10;73.00;;;;;;5107754;27;43469;-73
2023/07/27 05:34:55;;;;;;;0.70;0.70;;;22.00;72.90;;;;;;5089414;27;43592;-73
2023/07/27 05:37:23;;;;;;;0.80;0.80;;;22.00;73.00;;;;;;5109179;27;43590;-73
2023/07/27 05:39:51;;;;;;;1.00;1.00;;;22.00;72.90;;;;;;5108936;27;44038;-73
2023/07/27 05:42:19;;;;;;;0.80;0.80;;;22.00;73.10;;;;;;5109190;27;43438;-74
2023/07/27 05:44:47;;;;;;;0.90;0.90;;;21.90;73.60;;;;;;5106236;27;43597;-73
2023/07/27 05:47:18;;;;;;;0.70;0.70;;;21.90;73.50;;;;;;5090261;27;45728;-73
2023/07/27 05:49:47;;;;;;;0.70;0.70;;;21.90;73.30;;;;;;5090138;27;44805;-73
2023/07/27 05:52:15;;;;;;;0.77;0.77;;;21.90;73.20;;;;;;5109028;27;43355;-73
2023/07/27 05:54:43;;;;;;;0.80;0.80;;;21.80;73.80;;;;;;5109108;27;44080;-73
2023/07/27 05:57:11;;;;;;;1.00;1.00;;;21.90;73.80;;;;;;5090149;27;44024;-74
2023/07/27 05:59:39;;;;;;;0.90;0.90;;;22.00;73.60;;;;;;5108230;27;43407;-73
2023/07/27 06:02:20;;;;;;;0.97;0.97;;;22.10;73.00;;;;;;5108681;27;43347;-72
2023/07/27 06:04:48;;;;;;;0.70;0.70;;;22.20;72.50;;;;;;5090089;27;43594;-72
2023/07/27 06:07:16;;;;;;;0.90;0.90;;;22.30;72.30;;;;;;5108336;27;43937;-73
2023/07/27 06:09:44;;;;;;;0.83;0.83;;;22.30;72.30;;;;;;5108652;27;43443;-72
2023/07/27 06:12:12;;;;;;;0.80;0.80;;;22.20;72.20;;;;;;5108610;27;43393;-74
2023/07/27 06:14:40;;;;;;;0.90;0.90;;;22.10;72.60;;;;;;5108660;27;43510;-72
2023/07/27 06:17:08;;;;;;;1.10;1.10;;;22.10;73.00;;;;;;5085501;28;45482;-73
2023/07/27 06:19:37;;;;;;;0.90;0.90;;;22.10;73.00;;;;;;5087304;27;43923;-73
2023/07/27 06:22:06;;;;;;;0.70;0.70;;;22.00;73.60;;;;;;5089550;27;43485;-73
2023/07/27 06:24:34;;;;;;;0.80;0.80;;;22.00;72.90;;;;;;5108626;27;43553;-73
2023/07/27 06:27:02;;;;;;;0.83;0.83;;;21.90;73.50;;;;;;5108271;27;43612;-72
2023/07/27 06:29:31;;;;;;;0.67;0.67;;;21.90;73.50;;;;;;5108526;27;43521;-72
2023/07/27 06:32:00;;;;;;;0.80;0.80;;;22.00;73.40;;;;;;5106664;27;43461;-73
2023/07/27 06:34:29;;;;;;;0.70;0.70;;;22.10;73.00;;;;;;5109125;27;43432;-71
2023/07/27 06:36:58;;;;;;;0.87;0.87;;;22.10;72.80;;;;;;5106382;27;43623;-74
2023/07/27 06:39:26;;;;;;;0.63;0.63;;;22.10;72.70;;;;;;5088806;27;44754;-73
2023/07/27 06:41:55;;;;;;;0.80;0.80;;;22.10;73.00;;;;;;5108107;27;43463;-73
2023/07/27 06:44:30;;;;;;;0.90;0.90;;;22.00;73.00;;;;;;5108602;27;43408;-74
2023/07/27 06:46:58;;;;;;;0.80;0.80;;;22.00;73.00;;;;;;5093425;27;45552;-74
2023/07/27 06:49:26;;;;;;;0.60;0.60;;;22.00;72.90;;;;;;5093151;27;44907;-73
2023/07/27 06:51:54;;;;;;;0.90;0.90;;;22.00;72.90;;;;;;5093026;27;44044;-74
2023/07/27 06:54:23;;;;;;;0.80;0.80;;;21.90;73.50;;;;;;5111893;27;43478;-73
2023/07/27 06:56:51;;;;;;;0.93;0.93;;;21.90;73.50;;;;;;5111215;27;43600;-73
2023/07/27 06:59:19;;;;;;;0.70;0.70;;;21.90;73.40;;;;;;5111497;27;43425;-73
2023/07/27 07:01:47;;;;;;;0.80;0.80;;;21.90;73.20;;;;;;5110642;27;43404;-73
2023/07/27 07:04:15;;;;;;;0.80;0.80;;;21.80;73.40;;;;;;5111690;27;43494;-73
2023/07/27 07:06:43;;;;;;;0.77;0.77;;;21.80;73.80;;;;;;5092879;27;45497;-72
2023/07/27 07:09:11;;;;;;;0.70;0.70;;;21.80;73.70;;;;;;5110435;27;43878;-72
2023/07/27 07:11:41;;;;;;;0.80;0.80;;;21.80;73.50;;;;;;5092746;27;43437;-74
2023/07/27 07:14:09;;;;;;;0.80;0.80;;;21.80;73.40;;;;;;5111754;27;43482;-73
2023/07/27 07:16:37;;;;;;;1.00;1.00;;;21.80;74.00;;;;;;5092550;27;45698;-73
2023/07/27 07:19:05;;;;;;;0.50;0.50;;;21.80;73.90;;;;;;5110760;27;43477;-73
2023/07/27 07:21:33;;;;;;;0.70;0.70;;;21.90;73.50;;;;;;5111279;27;43442;-73
2023/07/27 07:24:01;;;;;;;1.00;1.00;;;22.00;73.00;;;;;;5083514;27;43426;-73
2023/07/27 07:26:29;;;;;;;0.70;0.70;;;22.20;72.60;;;;;;5104613;27;43607;-73
2023/07/27 07:28:59;;;;;;;0.70;0.70;;;22.20;72.40;;;;;;5110970;27;44017;-73
2023/07/27 07:31:27;;;;;;;0.80;0.80;;;22.20;72.20;;;;;;5103352;27;43417;-73
2023/07/27 07:33:55;;;;;;;0.80;0.80;;;22.20;72.20;;;;;;5106402;27;43400;-72
2023/07/27 07:36:25;;;;;;;0.90;0.90;;;22.10;72.70;;;;;;5104714;27;43826;-74
2023/07/27 07:38:53;;;;;;;0.90;0.90;;;22.10;72.90;;;;;;5101782;27;43383;-73
2023/07/27 07:41:22;;;;;;;0.77;0.77;;;22.00;72.90;;;;;;5091671;27;43402;-75
2023/07/27 07:43:50;;;;;;;0.70;0.70;;;22.00;72.90;;;;;;5092229;27;43620;-73
2023/07/27 07:46:20;;;;;;;0.80;0.80;;;21.90;72.90;;;;;;5092159;27;45445;-73
2023/07/27 07:48:49;;;;;;;0.90;0.90;;;21.90;73.60;;;;;;5110898;27;43367;-73
2023/07/27 07:51:20;;;;;;;0.80;0.80;;;21.90;73.50;;;;;;5102454;27;43408;-73
2023/07/27 07:53:48;;;;;;;0.73;0.73;;;22.00;73.30;;;;;;5111257;27;43390;-73
2023/07/27 07:56:17;;;;;;;0.80;0.80;;;22.00;73.00;;;;;;5108489;27;43885;-73
2023/07/27 07:58:45;;;;;;;0.83;0.83;;;22.00;72.90;;;;;;5091388;27;44597;-73
2023/07/27 08:01:13;;;;;;;0.70;0.70;;;22.00;73.20;;;;;;5110462;27;43378;-73
2023/07/27 08:03:42;;;;;;;0.90;0.90;;;22.00;73.20;;;;;;5109982;27;44074;-72
2023/07/27 08:06:12;;;;;;;0.70;0.70;;;22.00;73.20;;;;;;5110248;27;43841;-73
2023/07/27 08:08:40;;;;;;;0.70;0.70;;;21.90;73.10;;;;;;5110558;27;43410;-73
2023/07/27 08:11:08;;;;;;;0.70;0.70;;;21.90;73.10;;;;;;5110515;27;43826;-74
2023/07/27 08:13:37;;;;;;;0.70;0.70;;;21.80;73.60;;;;;;5111012;27;43371;-74
2023/07/27 08:16:06;;;;;;;0.80;0.80;;;21.80;73.60;;;;;;5110080;27;43611;-73
2023/07/27 08:18:34;;;;;;;0.70;0.70;;;21.80;73.50;;;;;;5110159;27;43438;-73
2023/07/27 08:21:04;;;;;;;0.80;0.80;;;21.80;73.40;;;;;;5107300;27;43426;-74
2023/07/27 08:23:32;;;;;;;0.80;0.80;;;21.80;74.10;;;;;;5110758;27;43511;-73
2023/07/27 08:26:00;;;;;;;0.80;0.80;;;21.70;73.40;;;;;;5110147;27;43839;-73
2023/07/27 08:28:28;;;;;;;0.80;0.80;;;21.70;73.50;;;;;;5110032;27;43409;-74
2023/07/27 08:30:56;;;;;;;0.77;0.77;;;21.70;73.70;;;;;;5091309;27;43431;-73
2023/07/27 08:33:25;;;;;;;0.70;0.70;;;21.60;73.70;;;;;;5091729;27;43428;-73
2023/07/27 08:35:53;;;;;;;0.70;0.70;;;21.60;73.80;;;;;;5109887;27;43616;-73
2023/07/27 08:38:23;;;;;;;0.80;0.80;;;21.60;74.00;;;;;;5110255;27;43539;-73
2023/07/27 08:40:55;;;;;;;0.70;0.70;;;21.60;74.60;;;;;;5109915;27;44079;-73
2023/07/27 08:43:23;;;;;;;0.90;0.90;;;21.70;74.30;;;;;;5110182;27;43425;-72
2023/07/27 08:45:51;;;;;;;0.70;0.70;;;21.80;73.80;;;;;;5109919;27;44198;-73
2023/07/27 08:48:19;;;;;;;0.80;0.80;;;22.00;73.30;;;;;;5090356;27;43881;-72
2023/07/27 08:50:48;;;;;;;0.60;0.60;;;22.30;72.60;;;;;;5109415;27;43893;-73
2023/07/27 08:53:16;;;;;;;0.80;0.80;;;22.50;71.70;;;;;;5109675;27;43433;-72
2023/07/27 08:55:46;;;;;;;0.80;0.80;;;22.80;71.00;;;;;;5090911;27;46122;-73
2023/07/27 08:58:13;;;;;;;0.70;0.70;;;23.00;70.00;;;;;;5109521;27;43949;-73
2023/07/27 09:00:42;;;;;;;0.77;0.77;;;23.20;69.40;;;;;;5109482;27;43337;-73
2023/07/27 09:03:10;;;;;;;0.60;0.60;;;23.30;68.80;;;;;;5090841;27;43417;-73
2023/07/27 09:05:41;;;;;;;0.60;0.60;;;23.50;68.50;;;;;;5090357;27;45461;-73
2023/07/27 09:08:10;;;;;;;0.70;0.70;;;23.50;68.10;;;;;;5101566;27;43644;-72
2023/07/27 09:10:38;;;;;;;0.60;0.60;;;23.50;67.90;;;;;;5109059;27;43391;-73
2023/07/27 09:13:07;;;;;;;0.77;0.77;;;23.40;68.20;;;;;;5110141;27;43434;-73
2023/07/27 09:15:36;;;;;;;0.70;0.70;;;23.30;68.70;;;;;;5108929;27;43678;-72
2023/07/27 09:18:09;;;;;;;0.70;0.70;;;23.10;69.40;;;;;;5109489;27;43463;-72
2023/07/27 09:20:37;;;;;;;0.70;0.70;;;23.00;69.70;;;;;;5090377;27;43471;-72
2023/07/27 09:23:05;;;;;;;0.70;0.70;;;22.90;69.90;;;;;;5090934;27;43395;-72
2023/07/27 09:25:33;;;;;;;0.83;0.83;;;22.80;70.30;;;;;;5090363;27;46161;-72
2023/07/27 09:28:01;;;;;;;0.80;0.80;;;22.60;70.50;;;;;;5109547;27;43351;-73
2023/07/27 09:30:34;;;;;;;0.80;0.80;;;22.50;71.10;;;;;;5109181;27;44011;-72
2023/07/27 09:33:04;;;;;;;0.70;0.70;;;22.50;71.30;;;;;;5109589;27;43399;-72
2023/07/27 09:35:35;;;;;;;0.57;0.57;;;22.40;71.40;;;;;;5083639;27;45996;-74
2023/07/27 09:38:03;;;;;;;0.53;0.53;;;22.30;71.50;;;;;;5102655;27;43530;-74
2023/07/27 09:40:33;;;;;;;0.73;0.73;;;22.20;72.00;;;;;;5109121;27;43438;-73
2023/07/27 09:43:05;;;;;;;0.80;0.80;;;22.20;72.10;;;;;;5109262;27;43388;-73
2023/07/27 09:45:37;;;;;;;0.70;0.70;;;22.40;71.90;;;;;;5104808;27;43929;-73
2023/07/27 09:48:06;;;;;;;0.70;0.70;;;22.60;71.30;;;;;;5109056;27;43474;-73
2023/07/27 09:50:34;;;;;;;0.70;0.70;;;22.70;70.80;;;;;;5108397;27;43936;-73
2023/07/27 09:53:02;;;;;;;0.80;0.80;;;22.70;70.50;;;;;;5109281;27;43432;-73
2023/07/27 09:55:32;;;;;;;0.70;0.70;;;22.70;70.80;;;;;;5108612;27;43606;-73
2023/07/27 09:58:00;;;;;;;0.63;0.63;;;22.60;70.90;;;;;;5105400;27;43867;-73
2023/07/27 10:00:29;;;;;;;0.87;0.87;;;22.40;71.40;;;;;;5108045;27;43412;-74
2023/07/27 10:02:59;;;;;;;0.80;0.80;;;22.40;71.70;;;;;;5108151;27;43510;-72
2023/07/27 10:05:38;;;;;;;0.70;0.70;;;22.30;71.80;;;;;;5107758;27;43933;-74
2023/07/27 10:08:06;;;;;;;0.70;0.70;;;22.30;72.50;;;;;;5089587;27;44432;-73
2023/07/27 10:10:39;;;;;;;0.63;0.63;;;22.20;72.10;;;;;;5101609;27;43945;-73
2023/07/27 10:13:10;;;;;;;0.80;0.80;;;22.10;72.70;;;;;;5109194;27;43429;-73
2023/07/27 10:15:42;;;;;;;0.70;0.70;;;22.10;72.70;;;;;;5108500;27;43839;-74
2023/07/27 10:18:14;;;;;;;0.80;0.80;;;22.00;72.80;;;;;;5109035;27;43490;-73
2023/07/27 10:20:42;;;;;;;0.60;0.60;;;22.00;72.70;;;;;;5093212;27;44053;-73
2023/07/27 10:23:12;;;;;;;0.90;0.90;;;21.90;73.10;;;;;;5112415;27;43444;-73
2023/07/27 10:26:02;;;;;;;0.63;0.63;;;21.90;73.20;;;;;;5089099;27;45622;-73
2023/07/27 10:28:31;;;;;;;0.70;0.70;;;22.10;73.00;;;;;;5087720;27;45005;-72
2023/07/27 10:31:19;;;;;;;0.90;0.90;;;22.20;72.40;;;;;;5108914;27;44645;-74
2023/07/27 10:33:48;;;;;;;1.50;0.80;;;22.40;71.70;;;;;;5093241;27;43411;-73
2023/07/27 10:36:17;;;;;;;0.83;0.83;;;22.50;71.60;;;;;;5093163;27;45692;-74
2023/07/27 10:38:53;;;;;;;3.60;0.77;;;22.40;71.50;;;;;;5093197;27;44722;-73
2023/07/27 10:41:22;;;;;;;1.80;0.77;;;22.30;71.50;;;;;;5106691;27;43538;-73
2023/07/27 10:44:18;;;;;;;3.40;0.73;;;22.20;72.20;;;;;;5105768;27;43590;-73
2023/07/27 10:46:47;;;;;;;0.90;0.70;;;22.20;72.40;;;;;;5108534;27;43620;-74
2023/07/27 10:49:17;;;;;;;2.13;0.53;;;22.10;72.30;;;;;;5111946;27;43519;-74
2023/07/27 10:51:55;;;;;;;0.67;0.67;;;22.10;72.50;;;;;;5092697;27;43368;-74
2023/07/27 10:54:24;;;;;;;0.70;0.70;;;22.00;73.10;;;;;;5095768;27;43379;-74
2023/07/27 10:56:52;;;;;;;0.93;0.80;;;22.00;73.20;;;;;;5088653;27;45725;-74
2023/07/27 10:59:21;;;;;;;0.70;0.70;;;22.00;73.20;;;;;;5111531;27;43400;-73
2023/07/27 11:01:49;;;;;;;0.70;0.70;;;21.90;73.00;;;;;;5092817;27;43418;-74
2023/07/27 11:04:18;;;;;;;0.93;0.93;;;21.90;73.40;;;;;;5111217;27;43414;-73
2023/07/27 11:06:47;;;;;;;1.50;0.80;;;21.90;73.60;;;;;;5104967;27;43861;-74
2023/07/27 11:09:16;;;;;;;0.50;0.50;;;21.90;73.30;;;;;;5110747;27;44354;-73
2023/07/27 11:11:44;;;;;;;1.13;0.80;;;22.10;72.90;;;;;;5106383;27;43424;-73
2023/07/27 11:14:12;;;;;;;0.80;0.80;;;22.20;72.20;;;;;;5096392;27;43508;-73
2023/07/27 11:16:40;;;;;;;0.67;0.67;;;22.30;72.10;;;;;;5110715;27;43607;-74
2023/07/27 11:19:09;;;;;;;0.70;0.70;;;22.30;72.10;;;;;;5104664;27;43512;-73
2023/07/27 11:21:40;;;;;;;0.80;0.80;;;22.20;72.00;;;;;;5111331;27;43893;-74
2023/07/27 11:24:09;;;;;;;0.70;0.70;;;22.10;72.30;;;;;;5096649;27;43515;-74
2023/07/27 11:26:37;;;;;;;0.80;0.80;;;22.10;72.80;;;;;;5111200;27;43619;-73
2023/07/27 11:29:06;;;;;;;0.70;0.70;;;22.00;72.80;;;;;;5111110;27;43968;-73
2023/07/27 11:31:34;;;;;;;0.70;0.70;;;22.00;72.80;;;;;;5110234;27;43435;-74
2023/07/27 11:34:03;;;;;;;0.70;0.70;;;21.90;72.80;;;;;;5092917;27;43853;-73
2023/07/27 11:36:31;;;;;;;0.70;0.70;;;21.90;73.50;;;;;;5091709;27;45809;-73
2023/07/27 11:39:01;;;;;;;0.77;0.77;;;21.90;73.50;;;;;;5092082;27;44530;-73
2023/07/27 11:41:29;;;;;;;0.70;0.70;;;22.00;73.20;;;;;;5110525;27;43410;-74
2023/07/27 11:44:00;;;;;;;0.77;0.77;;;22.10;72.90;;;;;;5111360;27;43383;-73
2023/07/27 11:46:28;;;;;;;0.70;0.70;;;22.10;72.70;;;;;;5092221;27;46027;-73
2023/07/27 11:48:57;;;;;;;0.70;0.70;;;22.10;72.70;;;;;;5109009;27;43360;-74
2023/07/27 11:51:34;;;;;;;0.60;0.60;;;22.00;73.00;;;;;;5110110;27;43457;-73
2023/07/27 11:54:03;;;;;;;0.63;0.63;;;22.00;73.80;;;;;;5111435;27;43335;-73
2023/07/27 11:56:34;;;;;;;0.57;0.57;;;22.00;73.00;;;;;;5110637;27;43559;-74
2023/07/27 11:59:02;;;;;;;0.70;0.70;;;21.90;72.90;;;;;;5084602;27;45014;-74
2023/07/27 12:01:32;;;;;;;0.60;0.60;;;21.90;73.10;;;;;;5091214;27;43414;-72
2023/07/27 12:04:01;;;;;;;0.70;0.70;;;21.80;73.50;;;;;;5110496;27;43541;-73
2023/07/27 12:06:29;;;;;;;0.80;0.80;;;21.80;73.40;;;;;;5091414;27;45297;-73
2023/07/27 12:08:58;;;;;;;0.60;0.60;;;21.80;73.30;;;;;;5092002;27;44767;-73
2023/07/27 12:11:30;;;;;;;0.60;0.60;;;21.80;73.30;;;;;;5110985;27;44047;-72
2023/07/27 12:14:03;;;;;;;0.80;0.80;;;21.80;73.70;;;;;;5111144;27;43411;-73
2023/07/27 12:16:37;;;;;;;0.70;0.70;;;21.80;73.90;;;;;;5110356;27;43616;-73
2023/07/27 12:19:08;;;;;;;0.73;0.73;;;21.80;73.60;;;;;;5081848;27;43654;-72
2023/07/27 12:21:36;;;;;;;0.60;0.60;;;22.00;73.20;;;;;;5085323;27;43407;-73
2023/07/27 12:24:07;;;;;;;0.70;0.70;;;22.20;72.70;;;;;;5108494;27;43393;-74
2023/07/27 12:26:40;;;;;;;0.80;0.80;;;22.20;72.30;;;;;;5104807;27;43603;-73
2023/07/27 12:29:11;;;;;;;0.90;0.90;;;22.20;72.20;;;;;;5091518;27;45698;-73
2023/07/27 12:31:41;;;;;;;0.50;0.50;;;22.20;72.20;;;;;;5110019;27;44085;-73
2023/07/27 12:34:12;;;;;;;0.80;0.80;;;22.10;72.40;;;;;;5110309;27;43420;-72
2023/07/27 12:36:45;;;;;;;0.80;0.80;;;22.00;72.90;;;;;;5109852;27;43845;-73
2023/07/27 12:39:33;;;;;;;0.60;0.60;;;22.00;73.20;;;;;;5091217;27;44880;-74
2023/07/27 12:42:02;;;;;;;0.70;0.70;;;21.90;72.90;;;;;;5095369;27;43462;-73
2023/07/27 12:44:33;;;;;;;0.77;0.77;;;21.90;73.00;;;;;;5110307;27;44032;-74
2023/07/27 12:47:01;;;;;;;0.70;0.70;;;21.80;73.60;;;;;;5091251;27;45295;-73
2023/07/27 12:49:29;;;;;;;0.77;0.77;;;21.80;73.50;;;;;;5109753;27;43380;-73
2023/07/27 12:51:57;;;;;;;0.80;0.80;;;21.80;73.50;;;;;;5109560;27;43565;-73
2023/07/27 12:54:25;;;;;;;0.63;0.63;;;21.80;73.40;;;;;;5092076;27;43497;-73
2023/07/27 12:56:53;;;;;;;0.83;0.83;;;21.70;73.90;;;;;;5090900;27;45743;-73
2023/07/27 12:59:22;;;;;;;0.70;0.70;;;21.70;73.90;;;;;;5083799;27;44407;-73